NKT weather

Cherry Point MCAS /Cunningham Field/
Cherry Point, North Carolina, United States

Public forecast

Using degrees Fahrenheit for public forecast. Weather courtesy of forecast.io.

Current aviation weather report (METAR) for Cherry Point MCAS /Cunningham Field/

Retrieved 2019/10/18 09:54 UTC (26 minutes ago):

KNKT 180954Z 24004KT 10SM CLR 07/04 A2997 RMK AO2 SLP146 T00720039

Aviation forecast (TAF) for Cherry Point MCAS /Cunningham Field/

Forecast is more than 12 hours old.

Retrieved 2014/07/10 21:49 UTC (5 years ago):

TAF COR KNKT 102100Z 1021/1121 21012G18KT 9999 VCTS SCT015 BKN025CB OVC040 QNH2999INS TEMPO 1021/1101 20020G30KT 2800 TSRA BKN015 OVC025CB FM110200 20010KT 9999 VCTS SCT015 BKN025CB BKN040 QNH3000INS TEMPO 1103/1106 6000 SHRA BKN015 BKN030 BKN050 FM111400 21012KT 9999 VCTS SCT015 BKN025CB OVC040 QNH3005INS TEMPO 1117/1119 20015G22KT 2800 TSRA BKN015 BKN025CB OVC040 T24/1109Z T31/1118Z COR 2340